Time;durP1;ratioP1;P1;durP2;ratioP2;P2;SDS_P1;SDS_P2;PMS_P1;PMS_P2;Temp;Humidity;BMP_temperature;BMP_pressure;BME280_temperature;BME280_humidity;BME280_pressure;Samples;Min_cycle;Max_cycle;Signal;HPM_P1;HPM_P2
2021/11/19 00:00:50;;;;;;;18.92;6.75;;;;;;;;;;5016406;28;20052;-57
2021/11/19 00:03:17;;;;;;;18.07;6.30;;;;;;;;;;5025008;28;20043;-59
2021/11/19 00:05:44;;;;;;;18.08;7.28;;;;;;;;;;5009095;28;20050;-57
2021/11/19 00:08:12;;;;;;;14.18;6.28;;;;;;;;;;5004682;28;20046;-59
2021/11/19 00:10:38;;;;;;;27.70;7.00;;;;;;;;;;5010462;28;20057;-56
2021/11/19 00:13:07;;;;;;;24.60;7.13;;;;;;;;;;5009938;28;20042;-56
2021/11/19 00:15:33;;;;;;;21.70;6.72;;;;;;;;;;5003074;28;20033;-56
2021/11/19 00:18:00;;;;;;;16.65;7.75;;;;;;;;;;5025040;28;20041;-57
2021/11/19 00:20:29;;;;;;;18.83;7.32;;;;;;;;;;5019849;28;20056;-56
2021/11/19 00:22:56;;;;;;;21.27;7.63;;;;;;;;;;5024881;28;20055;-56
2021/11/19 00:25:22;;;;;;;21.00;7.13;;;;;;;;;;5036924;28;20030;-56
2021/11/19 00:27:49;;;;;;;15.02;5.90;;;;;;;;;;5005669;28;20046;-57
2021/11/19 00:30:17;;;;;;;25.10;7.93;;;;;;;;;;5003910;28;20041;-56
2021/11/19 00:32:44;;;;;;;;;;;;;;;;;;5016247;28;20041;-57
2021/11/19 00:35:11;;;;;;;17.10;6.32;;;;;;;;;;5004847;28;19913;-57
2021/11/19 00:37:38;;;;;;;18.38;6.97;;;;;;;;;;5019082;28;20135;-53
2021/11/19 00:40:06;;;;;;;20.95;8.23;;;;;;;;;;5026083;28;20049;-55
2021/11/19 00:42:33;;;;;;;20.70;8.38;;;;;;;;;;5024641;28;20046;-54
2021/11/19 00:44:59;;;;;;;19.20;7.43;;;;;;;;;;5005928;28;20049;-57
2021/11/19 00:47:27;;;;;;;24.45;8.23;;;;;;;;;;5003499;28;20033;-54
2021/11/19 00:49:55;;;;;;;22.87;8.00;;;;;;;;;;5004902;28;20022;-55
2021/11/19 00:52:23;;;;;;;22.85;8.10;;;;;;;;;;5009066;28;20123;-55
2021/11/19 00:54:49;;;;;;;20.67;7.07;;;;;;;;;;5025591;28;20095;-58
2021/11/19 00:57:18;;;;;;;20.02;8.05;;;;;;;;;;5019092;28;20102;-57
2021/11/19 00:59:47;;;;;;;;;;;;;;;;;;5025191;28;20256;-57
2021/11/19 01:02:15;;;;;;;18.25;6.57;;;;;;;;;;5051075;28;19935;-56
2021/11/19 01:04:43;;;;;;;15.83;6.93;;;;;;;;;;5022412;28;20042;-55
2021/11/19 01:07:10;;;;;;;17.95;7.68;;;;;;;;;;5006479;28;20048;-56
2021/11/19 01:09:38;;;;;;;19.35;7.75;;;;;;;;;;5025897;28;20041;-57
2021/11/19 01:12:05;;;;;;;22.92;7.97;;;;;;;;;;5016156;28;20049;-54
2021/11/19 01:14:35;;;;;;;13.55;5.88;;;;;;;;;;5005932;28;20053;-55
2021/11/19 01:17:05;;;;;;;18.00;7.03;;;;;;;;;;5005984;28;20050;-57
2021/11/19 01:19:34;;;;;;;17.05;7.70;;;;;;;;;;5003788;28;20044;-52
2021/11/19 01:22:04;;;;;;;19.38;8.45;;;;;;;;;;5004955;28;20042;-57
2021/11/19 01:24:30;;;;;;;28.38;7.70;;;;;;;;;;5019417;28;20037;-57
2021/11/19 01:26:57;;;;;;;25.30;8.45;;;;;;;;;;5025008;28;20039;-57
2021/11/19 01:29:27;;;;;;;17.67;7.80;;;;;;;;;;5021220;28;20049;-55
2021/11/19 01:31:55;;;;;;;19.92;8.05;;;;;;;;;;5023726;28;20039;-55
2021/11/19 01:34:22;;;;;;;;;;;;;;;;;;5020819;28;20075;-57
2021/11/19 01:36:51;;;;;;;18.70;7.53;;;;;;;;;;5056396;28;19953;-56
2021/11/19 01:39:20;;;;;;;20.70;8.23;;;;;;;;;;5020292;28;20118;-53
2021/11/19 01:41:49;;;;;;;23.40;8.02;;;;;;;;;;5024072;28;20078;-55
2021/11/19 01:44:15;;;;;;;;;;;;;;;;;;5010400;28;20037;-58
2021/11/19 01:46:43;;;;;;;18.15;6.78;;;;;;;;;;5020756;28;19921;-54
2021/11/19 01:49:11;;;;;;;20.53;7.83;;;;;;;;;;5013542;28;20041;-55
2021/11/19 01:51:42;;;;;;;22.20;8.90;;;;;;;;;;5005635;28;20042;-57
2021/11/19 01:54:11;;;;;;;28.90;10.20;;;;;;;;;;5006660;28;20053;-54
2021/11/19 01:56:40;;;;;;;;;;;;;;;;;;5026076;28;20049;-56
2021/11/19 01:59:11;;;;;;;18.85;8.27;;;;;;;;;;5049151;28;19921;-56
2021/11/19 02:01:39;;;;;;;21.85;9.07;;;;;;;;;;5001372;28;20145;-54
2021/11/19 02:04:07;;;;;;;25.42;9.68;;;;;;;;;;4999972;28;20080;-55
2021/11/19 02:06:36;;;;;;;19.30;8.40;;;;;;;;;;5003913;28;20046;-55
2021/11/19 02:09:05;;;;;;;19.27;8.02;;;;;;;;;;5003543;28;20102;-56
2021/11/19 02:11:34;;;;;;;22.48;8.38;;;;;;;;;;5041280;28;20110;-57
2021/11/19 02:14:03;;;;;;;18.02;8.27;;;;;;;;;;5008778;28;20161;-54
2021/11/19 02:16:29;;;;;;;;;;;;;;;;;;5022232;28;20041;-55
2021/11/19 02:18:59;;;;;;;19.90;7.90;;;;;;;;;;5005887;28;19944;-56
2021/11/19 02:21:27;;;;;;;18.67;8.48;;;;;;;;;;5018697;28;20037;-57
2021/11/19 02:23:56;;;;;;;24.90;8.55;;;;;;;;;;5026969;28;20048;-57
2021/11/19 02:26:25;;;;;;;21.10;9.57;;;;;;;;;;5023627;28;20045;-55
2021/11/19 02:28:52;;;;;;;;;;;;;;;;;;5028513;28;20045;-57
2021/11/19 02:31:19;;;;;;;28.45;9.10;;;;;;;;;;5021520;28;20042;-56
2021/11/19 02:33:46;;;;;;;19.58;8.25;;;;;;;;;;5035690;28;20225;-55
2021/11/19 02:36:15;;;;;;;20.73;8.77;;;;;;;;;;5012611;28;20045;-54
2021/11/19 02:38:45;;;;;;;17.67;8.27;;;;;;;;;;5027267;28;20038;-51
2021/11/19 02:41:12;;;;;;;24.30;9.13;;;;;;;;;;5032604;28;20042;-56
2021/11/19 02:43:41;;;;;;;22.88;8.43;;;;;;;;;;4989499;28;20181;-55
2021/11/19 02:46:07;;;;;;;21.65;8.85;;;;;;;;;;4990175;28;20073;-56
2021/11/19 02:48:35;;;;;;;23.83;9.43;;;;;;;;;;5025639;28;20034;-57
2021/11/19 02:51:04;;;;;;;21.88;9.95;;;;;;;;;;4994202;28;20065;-56
2021/11/19 02:53:31;;;;;;;25.58;11.02;;;;;;;;;;5006699;28;20135;-58
2021/11/19 02:55:58;;;;;;;20.30;8.40;;;;;;;;;;5002436;28;20038;-57
2021/11/19 02:58:26;;;;;;;26.33;10.00;;;;;;;;;;4987433;28;20050;-58
2021/11/19 03:00:58;;;;;;;22.15;9.57;;;;;;;;;;5004371;28;20124;-55
2021/11/19 03:03:32;;;;;;;26.90;11.25;;;;;;;;;;4984034;28;20042;-57
2021/11/19 03:05:59;;;;;;;27.08;10.77;;;;;;;;;;4985999;28;20042;-58
2021/11/19 03:08:25;;;;;;;24.17;9.57;;;;;;;;;;5002013;28;20041;-55
2021/11/19 03:10:55;;;;;;;32.75;10.07;;;;;;;;;;5005701;28;20134;-58
2021/11/19 03:13:23;;;;;;;27.70;10.30;;;;;;;;;;5004443;28;20042;-57
2021/11/19 03:15:49;;;;;;;24.60;10.48;;;;;;;;;;4985920;28;20038;-58
2021/11/19 03:18:17;;;;;;;22.88;9.50;;;;;;;;;;4985328;28;20060;-58
2021/11/19 03:20:44;;;;;;;25.63;10.65;;;;;;;;;;4985721;28;20054;-58
2021/11/19 03:23:10;;;;;;;27.92;10.45;;;;;;;;;;4982918;28;20054;-56
2021/11/19 03:25:38;;;;;;;27.30;11.10;;;;;;;;;;4987082;28;20038;-57
2021/11/19 03:28:06;;;;;;;26.88;10.05;;;;;;;;;;4983335;28;20050;-58
2021/11/19 03:30:34;;;;;;;23.52;9.63;;;;;;;;;;4986846;28;20022;-56
2021/11/19 03:33:00;;;;;;;19.95;9.63;;;;;;;;;;4987483;28;20093;-56
2021/11/19 03:35:27;;;;;;;18.98;9.43;;;;;;;;;;5004747;28;20066;-55
2021/11/19 03:37:55;;;;;;;24.65;11.38;;;;;;;;;;4998100;28;20046;-56
2021/11/19 03:40:24;;;;;;;20.63;9.98;;;;;;;;;;4986704;28;20050;-55
2021/11/19 03:42:51;;;;;;;21.67;10.27;;;;;;;;;;4996007;28;20053;-57
2021/11/19 03:45:20;;;;;;;21.05;9.25;;;;;;;;;;4988211;28;20100;-53
2021/11/19 03:47:48;;;;;;;24.23;11.05;;;;;;;;;;4987106;28;20078;-56
2021/11/19 03:50:17;;;;;;;29.73;11.80;;;;;;;;;;5019577;28;20046;-54
2021/11/19 03:52:44;;;;;;;21.48;9.02;;;;;;;;;;5022899;28;20045;-57
2021/11/19 03:55:12;;;;;;;22.73;9.60;;;;;;;;;;4986374;28;20050;-55
2021/11/19 03:57:39;;;;;;;25.47;9.83;;;;;;;;;;4984107;28;20026;-54
2021/11/19 04:00:08;;;;;;;23.45;9.45;;;;;;;;;;4996107;28;20033;-58
2021/11/19 04:02:36;;;;;;;25.17;10.60;;;;;;;;;;5004573;28;20041;-56
2021/11/19 04:05:03;;;;;;;26.05;11.35;;;;;;;;;;4989540;28;20104;-57
2021/11/19 04:07:29;;;;;;;28.80;10.93;;;;;;;;;;4985566;28;20042;-53
2021/11/19 04:09:57;;;;;;;25.80;11.38;;;;;;;;;;4981467;28;20046;-57
2021/11/19 04:12:24;;;;;;;22.98;11.02;;;;;;;;;;4995834;28;20049;-56
2021/11/19 04:14:50;;;;;;;24.08;9.60;;;;;;;;;;4993841;28;20030;-53
2021/11/19 04:17:17;;;;;;;25.23;11.63;;;;;;;;;;4987377;28;20050;-54
2021/11/19 04:19:52;;;;;;;27.20;11.77;;;;;;;;;;4984677;28;20590;-55
2021/11/19 04:22:19;;;;;;;19.45;10.10;;;;;;;;;;4986160;28;20046;-54
2021/11/19 04:24:47;;;;;;;25.60;11.48;;;;;;;;;;4983671;28;20074;-53
2021/11/19 04:27:14;;;;;;;24.85;10.55;;;;;;;;;;4986826;28;20108;-52
2021/11/19 04:29:41;;;;;;;22.73;10.73;;;;;;;;;;4984123;28;20042;-57
2021/11/19 04:32:09;;;;;;;26.88;10.85;;;;;;;;;;5022669;28;20052;-53
2021/11/19 04:34:36;;;;;;;21.98;10.18;;;;;;;;;;5004905;28;20042;-54
2021/11/19 04:37:04;;;;;;;30.17;11.48;;;;;;;;;;5018243;28;20131;-55
2021/11/19 04:39:30;;;;;;;18.75;8.95;;;;;;;;;;5023506;28;20044;-58
2021/11/19 04:41:57;;;;;;;27.05;11.45;;;;;;;;;;5005295;28;20045;-56
2021/11/19 04:44:24;;;;;;;22.77;11.07;;;;;;;;;;5043232;28;20037;-56
2021/11/19 04:46:50;;;;;;;29.20;11.60;;;;;;;;;;5024485;28;20053;-55
2021/11/19 04:49:17;;;;;;;24.42;11.07;;;;;;;;;;5006595;28;20053;-58
2021/11/19 04:51:45;;;;;;;18.83;9.52;;;;;;;;;;5012939;28;20049;-55
2021/11/19 04:54:13;;;;;;;22.10;10.10;;;;;;;;;;5025919;28;20077;-56
2021/11/19 04:56:41;;;;;;;22.87;11.47;;;;;;;;;;5019644;28;20038;-54
2021/11/19 04:59:07;;;;;;;25.33;10.45;;;;;;;;;;4985158;28;20067;-55
2021/11/19 05:01:38;;;;;;;21.58;10.25;;;;;;;;;;4994727;28;20275;-54
2021/11/19 05:04:05;;;;;;;28.02;11.57;;;;;;;;;;5005321;28;20029;-57
2021/11/19 05:06:31;;;;;;;24.98;10.75;;;;;;;;;;5020332;28;20045;-53
2021/11/19 05:08:58;;;;;;;24.30;9.40;;;;;;;;;;5006146;28;20038;-54
2021/11/19 05:11:28;;;;;;;22.52;10.10;;;;;;;;;;5018464;28;20160;-54
2021/11/19 05:13:55;;;;;;;22.38;11.20;;;;;;;;;;5023754;28;20046;-55
2021/11/19 05:16:22;;;;;;;32.80;11.73;;;;;;;;;;5003576;28;20041;-56
2021/11/19 05:18:49;;;;;;;18.73;9.88;;;;;;;;;;5005275;28;20131;-56
2021/11/19 05:21:17;;;;;;;26.80;11.93;;;;;;;;;;5004875;28;20042;-53
2021/11/19 05:23:43;;;;;;;25.85;10.80;;;;;;;;;;5000284;28;20056;-58
2021/11/19 05:26:10;;;;;;;22.70;10.85;;;;;;;;;;5005481;28;20060;-52
2021/11/19 05:28:38;;;;;;;22.85;10.50;;;;;;;;;;5033145;28;20160;-54
2021/11/19 05:31:05;;;;;;;22.58;10.00;;;;;;;;;;5042708;28;20069;-55
2021/11/19 05:33:32;;;;;;;26.65;9.82;;;;;;;;;;5016586;28;20045;-55
2021/11/19 05:35:58;;;;;;;17.60;9.38;;;;;;;;;;5041772;28;20041;-54
2021/11/19 05:38:26;;;;;;;21.48;11.05;;;;;;;;;;5010853;28;20041;-56
2021/11/19 05:40:52;;;;;;;28.48;11.02;;;;;;;;;;5005369;28;20034;-58
2021/11/19 05:43:19;;;;;;;24.65;10.73;;;;;;;;;;4987100;28;20046;-54
2021/11/19 05:45:47;;;;;;;20.67;10.02;;;;;;;;;;5007222;28;20086;-55
2021/11/19 05:48:13;;;;;;;19.45;9.43;;;;;;;;;;4985950;28;20041;-53
2021/11/19 05:50:41;;;;;;;23.17;11.48;;;;;;;;;;5008080;28;20128;-57
2021/11/19 05:53:08;;;;;;;20.55;9.80;;;;;;;;;;4985838;28;20045;-51
2021/11/19 05:55:36;;;;;;;23.65;10.50;;;;;;;;;;4988763;28;20038;-55
2021/11/19 05:58:03;;;;;;;23.55;10.88;;;;;;;;;;4986326;28;20185;-54
2021/11/19 06:00:38;;;;;;;27.52;12.20;;;;;;;;;;4986768;28;20034;-54
2021/11/19 06:03:06;;;;;;;22.63;10.18;;;;;;;;;;4989342;28;20059;-56
2021/11/19 06:05:33;;;;;;;22.83;11.98;;;;;;;;;;5001216;28;20097;-51
2021/11/19 06:07:59;;;;;;;21.20;9.65;;;;;;;;;;5022280;28;20038;-54
2021/11/19 06:10:29;;;;;;;22.25;9.80;;;;;;;;;;5001824;28;20038;-56
2021/11/19 06:12:58;;;;;;;23.25;10.55;;;;;;;;;;5021333;28;20092;-58
2021/11/19 06:15:28;;;;;;;23.17;10.57;;;;;;;;;;4999495;28;20104;-54
2021/11/19 06:18:00;;;;;;;19.52;9.43;;;;;;;;;;5004405;28;20038;-57
2021/11/19 06:20:29;;;;;;;25.85;10.65;;;;;;;;;;4998205;28;20096;-55
2021/11/19 06:22:58;;;;;;;25.05;11.27;;;;;;;;;;5005094;28;20323;-56
2021/11/19 06:25:26;;;;;;;22.10;10.57;;;;;;;;;;5001735;28;20123;-58
2021/11/19 06:27:54;;;;;;;24.38;10.07;;;;;;;;;;5006032;28;20038;-56
2021/11/19 06:30:23;;;;;;;24.38;10.80;;;;;;;;;;5001500;28;20042;-55
2021/11/19 06:32:50;;;;;;;23.65;12.23;;;;;;;;;;5004827;28;20045;-58
2021/11/19 06:35:17;;;;;;;23.00;10.85;;;;;;;;;;4999538;28;20046;-53
2021/11/19 06:37:45;;;;;;;23.77;11.35;;;;;;;;;;5004874;28;20048;-54
2021/11/19 06:40:13;;;;;;;23.15;10.02;;;;;;;;;;5001505;28;20058;-57
2021/11/19 06:42:39;;;;;;;23.38;11.23;;;;;;;;;;5013598;28;20126;-58
2021/11/19 06:45:06;;;;;;;23.88;11.02;;;;;;;;;;5018224;28;20098;-58
2021/11/19 06:47:33;;;;;;;22.30;10.13;;;;;;;;;;5004927;28;20049;-57
2021/11/19 06:49:59;;;;;;;19.42;10.43;;;;;;;;;;5022344;28;20061;-55
2021/11/19 06:52:26;;;;;;;29.70;14.15;;;;;;;;;;5018606;28;20119;-57
2021/11/19 06:54:54;;;;;;;30.83;13.00;;;;;;;;;;5021407;28;20048;-56
2021/11/19 06:57:20;;;;;;;19.35;9.65;;;;;;;;;;5007016;28;20044;-56
2021/11/19 06:59:49;;;;;;;28.30;10.98;;;;;;;;;;5008291;28;20022;-52
2021/11/19 07:02:16;;;;;;;25.27;10.82;;;;;;;;;;5032075;28;20116;-57
2021/11/19 07:04:43;;;;;;;24.35;11.15;;;;;;;;;;5009165;28;20038;-55
2021/11/19 07:07:10;;;;;;;23.08;10.85;;;;;;;;;;5006358;28;20049;-55
2021/11/19 07:09:42;;;;;;;25.05;12.30;;;;;;;;;;5009381;28;20119;-52
2021/11/19 07:12:12;;;;;;;22.00;9.88;;;;;;;;;;5013819;28;20034;-56
2021/11/19 07:14:39;;;;;;;25.23;10.00;;;;;;;;;;5047424;28;20115;-55
2021/11/19 07:17:07;;;;;;;25.52;11.20;;;;;;;;;;5021153;28;20042;-56
2021/11/19 07:19:36;;;;;;;22.95;10.75;;;;;;;;;;5009701;28;20085;-56
2021/11/19 07:22:02;;;;;;;;;;;;;;;;;;5029921;28;20037;-57
2021/11/19 07:24:29;;;;;;;25.15;10.35;;;;;;;;;;5028219;28;19921;-57
2021/11/19 07:26:55;;;;;;;19.80;9.13;;;;;;;;;;5025319;28;20041;-55
2021/11/19 07:29:29;;;;;;;29.40;10.50;;;;;;;;;;5027755;28;20111;-56
2021/11/19 07:31:55;;;;;;;23.65;10.07;;;;;;;;;;5024009;28;20065;-55
2021/11/19 07:34:22;;;;;;;21.45;9.82;;;;;;;;;;5023375;28;20030;-56
2021/11/19 07:36:48;;;;;;;24.17;10.55;;;;;;;;;;5026931;28;20038;-56
2021/11/19 07:39:17;;;;;;;25.92;10.88;;;;;;;;;;5008532;28;20038;-55
2021/11/19 07:41:44;;;;;;;24.20;9.85;;;;;;;;;;5009635;28;20034;-53
2021/11/19 07:44:10;;;;;;;18.83;8.35;;;;;;;;;;5022668;28;20045;-55
2021/11/19 07:46:39;;;;;;;20.80;8.90;;;;;;;;;;5008349;28;20097;-53
2021/11/19 07:49:07;;;;;;;20.50;8.88;;;;;;;;;;5021552;28;20114;-54
2021/11/19 07:51:35;;;;;;;16.38;7.78;;;;;;;;;;5028559;28;20077;-57
2021/11/19 07:54:01;;;;;;;19.55;8.50;;;;;;;;;;5011071;28;20049;-55
2021/11/19 07:56:30;;;;;;;19.83;8.85;;;;;;;;;;5008446;28;20037;-58
2021/11/19 07:59:09;;;;;;;17.20;8.13;;;;;;;;;;5006042;28;20049;-57
2021/11/19 08:01:36;;;;;;;21.35;8.18;;;;;;;;;;5010017;28;20096;-57
2021/11/19 08:04:05;;;;;;;21.08;9.23;;;;;;;;;;5014507;28;20045;-56
2021/11/19 08:06:32;;;;;;;18.50;8.88;;;;;;;;;;5028278;28;20038;-57
2021/11/19 08:08:59;;;;;;;18.90;8.75;;;;;;;;;;5024937;28;20041;-54
2021/11/19 08:11:25;;;;;;;21.98;9.35;;;;;;;;;;5026073;28;20041;-57
2021/11/19 08:13:52;;;;;;;18.15;7.82;;;;;;;;;;5031457;28;20045;-57
2021/11/19 08:16:19;;;;;;;17.92;8.23;;;;;;;;;;5024410;28;20049;-55
2021/11/19 08:18:47;;;;;;;18.75;9.02;;;;;;;;;;5022509;28;20053;-56
2021/11/19 08:21:16;;;;;;;18.10;8.60;;;;;;;;;;5025014;28;20044;-56
2021/11/19 08:23:44;;;;;;;23.73;8.55;;;;;;;;;;5007342;28;20034;-56
2021/11/19 08:26:17;;;;;;;14.63;7.53;;;;;;;;;;5025749;28;20029;-59
2021/11/19 08:28:44;;;;;;;20.25;8.63;;;;;;;;;;5026750;28;20126;-56
2021/11/19 08:31:11;;;;;;;18.27;7.35;;;;;;;;;;5006697;28;20119;-58
2021/11/19 08:33:38;;;;;;;17.75;7.65;;;;;;;;;;5016551;28;20103;-57
2021/11/19 08:36:06;;;;;;;19.45;8.20;;;;;;;;;;5025027;28;20070;-55
2021/11/19 08:38:34;;;;;;;19.00;7.63;;;;;;;;;;5028665;28;20021;-59
2021/11/19 08:41:00;;;;;;;20.98;7.65;;;;;;;;;;5010225;28;20049;-58
2021/11/19 08:43:28;;;;;;;15.35;7.57;;;;;;;;;;5008280;28;20045;-56
2021/11/19 08:45:56;;;;;;;18.17;7.60;;;;;;;;;;5032379;28;20041;-58
2021/11/19 08:48:23;;;;;;;18.40;8.07;;;;;;;;;;5026652;28;20126;-56
2021/11/19 08:50:51;;;;;;;16.65;7.00;;;;;;;;;;5014415;28;20034;-59
2021/11/19 08:53:18;;;;;;;16.17;7.38;;;;;;;;;;5008533;28;20109;-55
2021/11/19 08:55:48;;;;;;;16.20;6.95;;;;;;;;;;5005898;28;20041;-57
2021/11/19 08:58:14;;;;;;;16.73;7.53;;;;;;;;;;5007295;28;20045;-56
2021/11/19 09:00:48;;;;;;;16.52;7.63;;;;;;;;;;5023397;28;20096;-56
2021/11/19 09:03:14;;;;;;;14.70;6.72;;;;;;;;;;5013597;28;20044;-56
2021/11/19 09:05:42;;;;;;;18.55;6.78;;;;;;;;;;5018758;28;20063;-57
2021/11/19 09:08:09;;;;;;;18.27;7.05;;;;;;;;;;5007996;28;20033;-58
2021/11/19 09:10:41;;;;;;;16.73;6.18;;;;;;;;;;5005124;28;20120;-56
2021/11/19 09:13:09;;;;;;;17.27;6.38;;;;;;;;;;5022738;28;20041;-56
2021/11/19 09:15:36;;;;;;;16.67;6.63;;;;;;;;;;5028022;28;20033;-54
2021/11/19 09:18:07;;;;;;;19.40;7.53;;;;;;;;;;5042558;28;20041;-59
2021/11/19 09:20:43;;;;;;;20.30;7.38;;;;;;;;;;5027149;28;20041;-54
2021/11/19 09:23:10;;;;;;;16.83;7.03;;;;;;;;;;5009286;28;20049;-55
2021/11/19 09:25:38;;;;;;;12.88;6.05;;;;;;;;;;5009777;28;20037;-54
2021/11/19 09:28:05;;;;;;;16.45;6.22;;;;;;;;;;5024771;28;20029;-55
2021/11/19 09:30:37;;;;;;;14.50;6.57;;;;;;;;;;5030226;28;20029;-56
2021/11/19 09:33:04;;;;;;;12.77;6.10;;;;;;;;;;5016622;28;20099;-55
2021/11/19 09:35:31;;;;;;;15.45;6.95;;;;;;;;;;5029756;28;20077;-57
2021/11/19 09:37:58;;;;;;;17.70;6.25;;;;;;;;;;5013685;28;20053;-53
2021/11/19 09:40:33;;;;;;;16.90;6.97;;;;;;;;;;5028545;28;20040;-55
2021/11/19 09:43:06;;;;;;;12.90;5.30;;;;;;;;;;4994241;28;20079;-54
2021/11/19 09:45:40;;;;;;;14.65;6.28;;;;;;;;;;4991577;28;20058;-55
2021/11/19 09:48:21;;;;;;;20.63;6.78;;;;;;;;;;5002865;28;20038;-57
2021/11/19 09:51:08;;;;;;;17.38;6.50;;;;;;;;;;4987310;28;20046;-54
2021/11/19 09:54:02;;;;;;;14.60;5.82;;;;;;;;;;4988252;28;20031;-55
2021/11/19 09:56:46;;;;;;;19.80;6.43;;;;;;;;;;4991081;28;20045;-57
2021/11/19 09:59:18;;;;;;;13.00;5.45;;;;;;;;;;5000657;28;20049;-53
2021/11/19 10:02:05;;;;;;;15.57;5.38;;;;;;;;;;5009591;28;20161;-57
2021/11/19 10:04:50;;;;;;;17.40;5.72;;;;;;;;;;5005209;28;20089;-54
2021/11/19 10:07:22;;;;;;;13.27;5.60;;;;;;;;;;5010399;28;20049;-56
2021/11/19 10:09:58;;;;;;;14.00;5.38;;;;;;;;;;4990736;28;20120;-55
2021/11/19 10:12:27;;;;;;;14.00;4.85;;;;;;;;;;5014598;28;20049;-55
2021/11/19 10:14:58;;;;;;;17.77;5.72;;;;;;;;;;4988973;28;20037;-54
2021/11/19 10:17:33;;;;;;;16.10;5.60;;;;;;;;;;4990640;28;20066;-54
2021/11/19 10:20:06;;;;;;;15.95;5.45;;;;;;;;;;4979087;28;20034;-56
2021/11/19 10:22:35;;;;;;;14.02;5.50;;;;;;;;;;4990419;28;20042;-55
2021/11/19 10:25:06;;;;;;;15.77;5.40;;;;;;;;;;5003249;28;20057;-54
2021/11/19 10:27:34;;;;;;;11.23;5.00;;;;;;;;;;4990175;28;20100;-54
2021/11/19 10:30:05;;;;;;;14.82;5.30;;;;;;;;;;4998125;28;20046;-55
2021/11/19 10:32:35;;;;;;;11.13;4.80;;;;;;;;;;5008853;28;20054;-57
2021/11/19 10:35:12;;;;;;;13.38;4.85;;;;;;;;;;4997818;28;20077;-55
2021/11/19 10:37:57;;;;;;;12.43;4.75;;;;;;;;;;5009603;28;20117;-56
2021/11/19 10:40:43;;;;;;;10.70;4.40;;;;;;;;;;5004632;28;20033;-53
2021/11/19 10:43:19;;;;;;;9.25;4.10;;;;;;;;;;5023295;28;20041;-55
2021/11/19 10:46:04;;;;;;;9.18;4.70;;;;;;;;;;5024639;28;20033;-56
2021/11/19 10:48:36;;;;;;;18.05;4.88;;;;;;;;;;5004831;28;20057;-55
2021/11/19 10:51:21;;;;;;;11.02;4.88;;;;;;;;;;5020591;28;20144;-54
2021/11/19 10:54:01;;;;;;;12.70;4.55;;;;;;;;;;5008444;28;20053;-58
2021/11/19 10:56:46;;;;;;;9.77;4.35;;;;;;;;;;5006518;28;20070;-57
2021/11/19 10:59:33;;;;;;;12.27;5.28;;;;;;;;;;5008125;28;20098;-54
2021/11/19 11:02:02;;;;;;;15.93;5.20;;;;;;;;;;5017577;28;20046;-57
2021/11/19 11:04:38;;;;;;;14.95;4.88;;;;;;;;;;5008701;28;20049;-55
2021/11/19 11:07:13;;;;;;;13.32;4.15;;;;;;;;;;5004963;28;20116;-55
2021/11/19 11:09:51;;;;;;;12.35;4.68;;;;;;;;;;5008918;28;20034;-55
2021/11/19 11:12:24;;;;;;;13.20;5.05;;;;;;;;;;5013711;28;20045;-55
2021/11/19 11:15:01;;;;;;;12.60;4.78;;;;;;;;;;5008952;28;20053;-56
2021/11/19 11:17:29;;;;;;;17.77;6.32;;;;;;;;;;5024651;28;20038;-53
2021/11/19 11:20:15;;;;;;;11.93;5.40;;;;;;;;;;5008270;28;20038;-57
2021/11/19 11:22:54;;;;;;;17.13;6.00;;;;;;;;;;5022162;28;20397;-53
2021/11/19 11:25:27;;;;;;;12.70;5.75;;;;;;;;;;5028194;28;20025;-57
2021/11/19 11:27:58;;;;;;;12.38;5.80;;;;;;;;;;5024168;28;20033;-56
2021/11/19 11:30:26;;;;;;;11.48;5.35;;;;;;;;;;5046312;28;20037;-54
2021/11/19 11:33:05;;;;;;;14.77;5.60;;;;;;;;;;5040340;28;20053;-54
2021/11/19 11:35:34;;;;;;;17.63;5.50;;;;;;;;;;5028411;28;20049;-56
2021/11/19 11:38:19;;;;;;;21.02;5.93;;;;;;;;;;5025310;28;20041;-56
2021/11/19 11:41:11;;;;;;;14.73;5.60;;;;;;;;;;5027201;28;20042;-57
2021/11/19 11:43:40;;;;;;;16.38;6.07;;;;;;;;;;4988444;28;20050;-58
2021/11/19 11:46:20;;;;;;;15.40;6.18;;;;;;;;;;4989041;28;20042;-56
2021/11/19 11:48:52;;;;;;;9.85;5.07;;;;;;;;;;4985160;28;20042;-55
2021/11/19 11:51:21;;;;;;;16.02;6.13;;;;;;;;;;4989599;28;20030;-55
2021/11/19 11:53:54;;;;;;;12.57;5.65;;;;;;;;;;5001839;28;20074;-59
2021/11/19 11:56:23;;;;;;;9.80;4.80;;;;;;;;;;4988479;28;20026;-58
2021/11/19 11:58:56;;;;;;;10.80;4.55;;;;;;;;;;4986361;28;20048;-54
2021/11/19 12:01:28;;;;;;;12.32;5.25;;;;;;;;;;4989576;28;20038;-58
2021/11/19 12:03:57;;;;;;;10.93;4.97;;;;;;;;;;4998928;28;20038;-58
2021/11/19 12:06:25;;;;;;;15.82;4.47;;;;;;;;;;5008016;28;20034;-57
2021/11/19 12:08:57;;;;;;;11.43;4.75;;;;;;;;;;4991811;28;20106;-55
2021/11/19 12:11:50;;;;;;;13.15;4.90;;;;;;;;;;4987926;28;20038;-54
2021/11/19 12:14:25;;;;;;;8.02;4.03;;;;;;;;;;4990622;28;20057;-55
2021/11/19 12:16:59;;;;;;;18.90;6.20;;;;;;;;;;4987041;28;20049;-57
2021/11/19 12:19:29;;;;;;;11.63;4.90;;;;;;;;;;4998366;28;20053;-57
2021/11/19 12:22:00;;;;;;;12.65;5.15;;;;;;;;;;5008123;28;20038;-57
2021/11/19 12:24:27;;;;;;;15.25;5.32;;;;;;;;;;5021312;28;20119;-55
2021/11/19 12:26:58;;;;;;;10.68;4.75;;;;;;;;;;4984360;28;20037;-51
2021/11/19 12:29:30;;;;;;;9.32;4.20;;;;;;;;;;4992645;28;20053;-56
2021/11/19 12:32:02;;;;;;;14.68;4.57;;;;;;;;;;5007079;28;20074;-54
2021/11/19 12:34:31;;;;;;;7.32;3.67;;;;;;;;;;5000116;28;20066;-57
2021/11/19 12:36:59;;;;;;;11.80;3.92;;;;;;;;;;5009072;28;20053;-55
2021/11/19 12:39:30;;;;;;;7.80;3.60;;;;;;;;;;5005419;28;20038;-52
2021/11/19 12:42:00;;;;;;;7.78;4.07;;;;;;;;;;5009189;28;20033;-54
2021/11/19 12:44:53;;;;;;;8.15;4.05;;;;;;;;;;5024571;28;20037;-57
2021/11/19 12:47:28;;;;;;;8.07;3.90;;;;;;;;;;5024767;28;20048;-55
2021/11/19 12:50:16;;;;;;;9.57;3.60;;;;;;;;;;5020394;28;20058;-53
2021/11/19 12:52:44;;;;;;;12.30;3.70;;;;;;;;;;5033586;28;20033;-53
2021/11/19 12:55:18;;;;;;;7.57;2.75;;;;;;;;;;5020860;28;20038;-56
2021/11/19 12:58:05;;;;;;;9.40;3.28;;;;;;;;;;5007391;28;20066;-56
2021/11/19 13:00:49;;;;;;;7.73;3.07;;;;;;;;;;4980206;28;20042;-57
2021/11/19 13:03:19;;;;;;;9.27;3.30;;;;;;;;;;5007504;28;20041;-57
2021/11/19 13:05:55;;;;;;;10.77;3.58;;;;;;;;;;5011775;28;20068;-55
2021/11/19 13:08:36;;;;;;;6.65;3.30;;;;;;;;;;5026759;28;20045;-53
2021/11/19 13:11:17;;;;;;;11.20;3.40;;;;;;;;;;5022937;28;20118;-54
2021/11/19 13:13:46;;;;;;;6.97;2.88;;;;;;;;;;5004582;28;20049;-56
2021/11/19 13:16:34;;;;;;;8.60;2.92;;;;;;;;;;5023398;28;20077;-55
2021/11/19 13:19:23;;;;;;;7.15;2.95;;;;;;;;;;5006249;28;20034;-55
2021/11/19 13:21:51;;;;;;;8.52;3.30;;;;;;;;;;5013011;28;20042;-56
2021/11/19 13:24:38;;;;;;;10.00;2.72;;;;;;;;;;5007640;28;20096;-56
2021/11/19 13:27:24;;;;;;;7.28;2.92;;;;;;;;;;5003538;28;20046;-57
2021/11/19 13:29:56;;;;;;;7.22;2.55;;;;;;;;;;5007030;28;20026;-54
2021/11/19 13:32:56;;;;;;;14.25;2.85;;;;;;;;;;5003973;28;20037;-55
2021/11/19 13:35:42;;;;;;;10.20;2.00;;;;;;;;;;5004297;28;20033;-56
2021/11/19 13:38:12;;;;;;;8.82;1.90;;;;;;;;;;5018903;28;20049;-56
2021/11/19 13:40:41;;;;;;;6.45;2.08;;;;;;;;;;5008040;28;20041;-55
2021/11/19 13:43:26;;;;;;;9.55;2.33;;;;;;;;;;5021487;28;20041;-54
2021/11/19 13:45:58;;;;;;;6.85;2.42;;;;;;;;;;5014595;28;20123;-55
2021/11/19 13:48:42;;;;;;;7.57;2.15;;;;;;;;;;5004548;28;20052;-57
2021/11/19 13:51:18;;;;;;;7.25;2.13;;;;;;;;;;4978219;28;20022;-57
2021/11/19 13:53:57;;;;;;;6.05;2.00;;;;;;;;;;5003727;28;20034;-56
2021/11/19 13:56:26;;;;;;;5.97;2.00;;;;;;;;;;5006416;28;20037;-55
2021/11/19 13:58:53;;;;;;;;;;;;;;;;;;5004736;28;20046;-55
2021/11/19 14:01:35;;;;;;;6.82;1.95;;;;;;;;;;5005526;28;19917;-54
2021/11/19 14:04:04;;;;;;;8.40;1.63;;;;;;;;;;5004890;28;20040;-53
2021/11/19 14:06:38;;;;;;;4.32;1.55;;;;;;;;;;5010291;28;20049;-57
2021/11/19 14:09:08;;;;;;;5.93;1.30;;;;;;;;;;5023067;28;20044;-57
2021/11/19 14:11:35;;;;;;;6.40;1.80;;;;;;;;;;5024070;28;20049;-54
2021/11/19 14:14:13;;;;;;;7.63;1.70;;;;;;;;;;5005537;28;20033;-56
2021/11/19 14:16:45;;;;;;;10.43;2.28;;;;;;;;;;5009445;28;20038;-56
2021/11/19 14:19:21;;;;;;;7.88;1.58;;;;;;;;;;5013487;28;20041;-54
2021/11/19 14:21:57;;;;;;;8.32;1.55;;;;;;;;;;5030058;28;20037;-58
2021/11/19 14:24:29;;;;;;;5.00;1.65;;;;;;;;;;5026638;28;20045;-56
2021/11/19 14:27:04;;;;;;;6.85;1.90;;;;;;;;;;5029341;28;20041;-56
2021/11/19 14:29:34;;;;;;;8.52;1.88;;;;;;;;;;5012460;28;20030;-57
2021/11/19 14:32:05;;;;;;;6.47;1.70;;;;;;;;;;5010491;28;20038;-57
2021/11/19 14:34:37;;;;;;;8.00;1.42;;;;;;;;;;5019097;28;20041;-59
2021/11/19 14:37:10;;;;;;;7.03;1.30;;;;;;;;;;5029220;28;20038;-59
2021/11/19 14:39:40;;;;;;;7.47;1.45;;;;;;;;;;5029471;28;20045;-58
2021/11/19 14:42:08;;;;;;;4.38;1.25;;;;;;;;;;5004897;28;20042;-57
2021/11/19 14:44:36;;;;;;;3.72;1.20;;;;;;;;;;4986470;28;20077;-58
2021/11/19 14:47:05;;;;;;;7.45;1.38;;;;;;;;;;4989680;28;20127;-58
2021/11/19 14:49:44;;;;;;;8.10;1.40;;;;;;;;;;4994234;28;20053;-57